Terminal Aerodrome Forecast
Issued by NWS Wilmington, OH

Current Version | Previous Version | Text Only | Print | Product List | Glossary Off
Versions: 1 2 3 4 5 6 7 8 9 10 11 12 13 14 15 16 17 18 19 20 21 22 23 24 25 26

000
FTUS41 KILN 050100 AAA
TAFILN
TAF AMD
KILN 050101Z 0501/0524 34013KT 3/4SM -SN BR FEW004 OVC010
     FM050400 35010KT 3SM -SN OVC012
     FM050700 35008KT P6SM SCT020 OVC100
     FM051200 34010KT P6SM BKN025=

USA.gov is the U.S. government's official web portal to all federal, state and local government web resources and services.